OMDB/DXB METAR and TAF weather

Enter ICAO airport designator
Station Type Date Time Source
OMDB METAR 2021/04/17 02:00 UTC NOAA

OMDB 170200Z 20007KT CAVOK 22/17 Q1011 NOSIG


Station Type Date Time Source
OMDB Decoded METAR 2021/04/17 02:00 UTC NOAA

Dubai International Airport, United Arab Emirates (OMDB) 25-15N 055-20E 5M
Apr 16, 2021 - 10:00 PM EDT / 2021.04.17 0200 UTC
Wind: from the SSW (200 degrees) at 8 MPH (7 KT):0
Visibility: greater than 7 mile(s):0
Temperature: 71 F (22 C)
Dew Point: 62 F (17 C)
Relative Humidity: 73%
Pressure (altimeter): 29.85 in. Hg (1011 hPa)
ob: OMDB 170200Z 20007KT CAVOK 22/17 Q1011 NOSIG
cycle: 2

Station Type Date Time Source
OMDB TAF 2021/04/16 18:02 UTC NOAA

TAF OMDB 161700Z 1618/1800 25010KT CAVOK
BECMG 1618/1620 19005KT
BECMG 1706/1708 28011KT
BECMG 1716/1718 18005KT

Example: see airport list